createdAt,value
2019-02-18T00:01:40.738Z,2.13
2019-02-18T00:06:47.752Z,2.10
2019-02-18T00:11:52.447Z,2.00
2019-02-18T00:16:57.596Z,2.03
2019-02-18T00:22:02.845Z,2.37
2019-02-18T00:27:08.465Z,2.07
2019-02-18T00:32:15.063Z,1.87
2019-02-18T00:37:24.519Z,2.03
2019-02-18T00:42:27.068Z,2.17
2019-02-18T00:47:31.740Z,2.20
2019-02-18T00:52:36.416Z,1.93
2019-02-18T00:57:41.605Z,2.50
2019-02-18T01:02:47.964Z,2.47
2019-02-18T01:07:52.796Z,2.23
2019-02-18T01:12:57.543Z,1.73
2019-02-18T01:18:02.862Z,2.00
2019-02-18T01:23:07.540Z,2.27
2019-02-18T01:28:12.458Z,2.33
2019-02-18T01:33:20.985Z,2.10
2019-02-18T01:38:26.909Z,2.20
2019-02-18T01:43:31.688Z,2.40
2019-02-18T01:48:37.343Z,2.53
2019-02-18T01:53:43.949Z,2.67
2019-02-18T01:58:48.648Z,2.80
2019-02-18T02:03:54.427Z,2.30
2019-02-18T02:08:59.464Z,2.30
2019-02-18T02:14:05.840Z,2.40
2019-02-18T02:19:10.524Z,2.57
2019-02-18T02:24:17.014Z,2.33
2019-02-18T02:29:21.771Z,3.10
2019-02-18T02:34:27.608Z,2.70
2019-02-18T02:39:33.796Z,2.43
2019-02-18T02:44:38.501Z,2.53
2019-02-18T02:49:43.411Z,2.60
2019-02-18T02:54:48.313Z,2.50
2019-02-18T02:59:54.412Z,2.50
2019-02-18T03:05:00.518Z,2.23
2019-02-18T03:10:06.432Z,2.23
2019-02-18T03:15:11.259Z,2.60
2019-02-18T03:20:15.941Z,3.00
2019-02-18T03:25:23.227Z,2.93
2019-02-18T03:31:03.007Z,3.13
2019-02-18T03:36:08.120Z,3.10
2019-02-18T03:41:12.796Z,3.10
2019-02-18T03:46:19.675Z,3.10
2019-02-18T03:51:24.661Z,2.90
2019-02-18T03:56:30.057Z,2.43
2019-02-18T04:01:34.916Z,2.17
2019-02-18T04:06:39.573Z,2.47
2019-02-18T04:11:44.538Z,2.17
2019-02-18T04:16:49.540Z,1.87
2019-02-18T04:21:55.247Z,2.67
2019-02-18T04:27:01.449Z,2.27
2019-02-18T04:32:06.652Z,2.70
2019-02-18T04:37:11.478Z,2.77
2019-02-18T04:42:16.330Z,2.00
2019-02-18T04:47:20.990Z,2.60
2019-02-18T04:52:26.883Z,2.73
2019-02-18T04:57:31.762Z,2.73
2019-02-18T05:02:36.989Z,2.60
2019-02-18T05:07:42.926Z,2.40
2019-02-18T05:12:49.463Z,2.37
2019-02-18T05:17:54.746Z,2.67
2019-02-18T05:23:00.693Z,2.60
2019-02-18T05:28:05.591Z,2.30
2019-02-18T05:33:10.260Z,2.50
2019-02-18T05:38:14.932Z,2.50
2019-02-18T05:43:19.905Z,2.27
2019-02-18T05:48:25.593Z,2.47
2019-02-18T05:53:31.735Z,2.40
2019-02-18T05:58:37.955Z,2.70
2019-02-18T06:03:46.191Z,3.00
2019-02-18T06:08:50.862Z,2.70
2019-02-18T06:13:55.534Z,3.67
2019-02-18T06:19:00.800Z,2.73
2019-02-18T06:24:05.451Z,2.40
2019-02-18T06:29:14.931Z,2.40
2019-02-18T06:34:16.681Z,2.30
2019-02-18T06:39:22.627Z,2.93
2019-02-18T06:44:37.497Z,5.03
2019-02-18T06:49:44.486Z,3.37
2019-02-18T06:54:54.541Z,3.27
2019-02-18T07:00:02.314Z,4.73
2019-02-18T07:05:30.015Z,3.10
2019-02-18T07:10:39.388Z,3.10
2019-02-18T07:15:44.409Z,2.50
2019-02-18T07:20:50.454Z,2.93
2019-02-18T07:25:56.481Z,2.80
2019-02-18T07:31:01.492Z,2.33
2019-02-18T07:36:06.168Z,3.03
2019-02-18T07:41:11.808Z,3.37
2019-02-18T07:46:17.784Z,3.00
2019-02-18T07:51:22.450Z,3.37
2019-02-18T07:56:27.110Z,3.27
2019-02-18T08:01:31.768Z,3.40
2019-02-18T08:06:45.661Z,4.00
2019-02-18T08:11:50.854Z,3.63
2019-02-18T08:16:58.517Z,4.73
2019-02-18T08:22:04.647Z,4.70
2019-02-18T08:27:09.632Z,4.03
2019-02-18T08:32:16.364Z,4.00
2019-02-18T08:37:21.031Z,4.90
2019-02-18T08:42:25.964Z,4.30
2019-02-18T08:47:30.714Z,4.10
2019-02-18T08:52:36.090Z,3.83
2019-02-18T08:57:40.864Z,3.27
2019-02-18T09:02:47.184Z,4.50
2019-02-18T09:07:53.478Z,5.00
2019-02-18T09:12:59.779Z,4.33
2019-02-18T09:18:04.530Z,5.53
2019-02-18T09:23:28.620Z,4.93
2019-02-18T09:28:34.988Z,4.70
2019-02-18T09:33:41.498Z,4.80
2019-02-18T09:38:48.309Z,5.13
2019-02-18T09:43:54.468Z,6.50
2019-02-18T09:48:59.172Z,7.00
2019-02-18T09:54:03.889Z,7.30
2019-02-18T09:59:10.542Z,6.33
2019-02-18T10:04:16.777Z,6.93
2019-02-18T10:09:21.460Z,7.20
2019-02-18T10:14:26.151Z,7.23
2019-02-18T10:19:31.149Z,6.53
2019-02-18T10:24:35.877Z,6.67
2019-02-18T10:29:40.790Z,7.40
2019-02-18T10:34:46.140Z,7.30
2019-02-18T10:39:50.904Z,7.33
2019-02-18T10:44:55.829Z,7.33
2019-02-18T10:50:02.206Z,6.97
2019-02-18T10:55:07.893Z,6.93
2019-02-18T11:00:14.752Z,7.07
2019-02-18T11:05:20.821Z,6.80
2019-02-18T11:10:25.688Z,7.80
2019-02-18T11:15:30.706Z,6.83
2019-02-18T11:20:35.760Z,7.03
2019-02-18T11:25:40.679Z,7.13
2019-02-18T11:30:45.598Z,7.33
2019-02-18T11:35:52.217Z,7.07
2019-02-18T11:40:57.248Z,6.77
2019-02-18T11:46:02.075Z,6.77
2019-02-18T11:51:07.023Z,6.93
2019-02-18T11:56:11.784Z,6.63
2019-02-18T12:01:16.866Z,6.83
2019-02-18T12:06:22.814Z,6.70
2019-02-18T12:11:37.905Z,7.27
2019-02-18T12:16:35.717Z,7.43
2019-02-18T12:21:41.809Z,7.83
2019-02-18T12:26:48.989Z,7.37
2019-02-18T12:31:54.026Z,8.17
2019-02-18T12:36:58.868Z,8.13
2019-02-18T12:42:03.700Z,8.30
2019-02-18T12:47:08.808Z,8.03
2019-02-18T12:52:13.926Z,8.40
2019-02-18T12:57:19.248Z,7.60
2019-02-18T13:14:21.184Z,6.53
2019-02-18T15:20:52.724Z,4.57
2019-02-18T15:25:58.871Z,4.43
2019-02-18T15:31:04.136Z,3.10
2019-02-18T15:36:09.188Z,3.93
2019-02-18T15:41:14.156Z,3.27
2019-02-18T15:46:18.984Z,4.13
2019-02-18T15:51:23.971Z,3.00
2019-02-18T15:56:30.704Z,6.27
2019-02-18T16:01:35.962Z,3.53
2019-02-18T16:06:41.658Z,3.30
2019-02-18T16:11:47.732Z,2.70
2019-02-18T16:16:54.374Z,3.07
2019-02-18T16:21:59.097Z,5.03
2019-02-18T16:27:03.907Z,4.67
2019-02-18T16:32:08.599Z,2.30
2019-02-18T16:37:13.816Z,2.73
2019-02-18T16:42:21.047Z,2.77
2019-02-18T16:47:27.089Z,3.40
2019-02-18T16:52:33.452Z,3.70
2019-02-18T16:57:39.663Z,3.50
2019-02-18T17:02:46.867Z,4.07
2019-02-18T17:07:51.591Z,4.07
2019-02-18T17:12:56.329Z,4.03
2019-02-18T17:18:07.324Z,4.20
2019-02-18T17:23:09.042Z,3.20
2019-02-18T17:28:13.827Z,3.63
2019-02-18T17:33:19.089Z,3.17
2019-02-18T17:38:27.280Z,3.80
2019-02-18T17:43:32.079Z,3.47
2019-02-18T17:48:36.765Z,4.17
2019-02-18T17:53:43.061Z,3.50
2019-02-18T17:58:47.744Z,4.30
2019-02-18T18:03:54.034Z,3.77
2019-02-18T18:08:58.930Z,3.60
2019-02-18T18:14:05.325Z,3.73
2019-02-18T18:19:10.936Z,4.23
2019-02-18T18:24:15.609Z,4.63
2019-02-18T18:29:20.319Z,4.23
2019-02-18T18:34:25.252Z,7.20
2019-02-18T18:39:30.009Z,5.00
2019-02-18T18:44:34.993Z,4.07
2019-02-18T18:49:40.083Z,3.90
2019-02-18T18:54:44.770Z,3.30
2019-02-18T18:59:49.459Z,3.67
2019-02-18T19:04:54.395Z,3.37
2019-02-18T19:10:00.359Z,3.03
2019-02-18T19:15:06.892Z,3.13
2019-02-18T19:20:13.356Z,4.20
2019-02-18T19:25:18.327Z,3.67
2019-02-18T19:30:26.443Z,3.53
2019-02-18T19:35:31.204Z,2.97
2019-02-18T19:40:36.409Z,2.90
2019-02-18T19:45:45.044Z,3.47
2019-02-18T19:50:49.756Z,4.17
2019-02-18T19:55:56.144Z,3.07
2019-02-18T20:01:06.662Z,3.07
2019-02-18T20:06:12.696Z,3.27
2019-02-18T20:11:17.877Z,4.83
2019-02-18T20:16:25.416Z,4.13
2019-02-18T20:21:30.443Z,4.13
2019-02-18T20:26:35.454Z,4.57
2019-02-18T20:31:41.385Z,4.17
2019-02-18T20:36:47.478Z,3.27
2019-02-18T20:41:52.631Z,3.20
2019-02-18T20:46:57.340Z,3.03
2019-02-18T20:52:03.285Z,3.23
2019-02-18T20:57:08.067Z,3.60
2019-02-18T21:02:14.718Z,3.70
2019-02-18T21:07:19.403Z,3.57
2019-02-18T21:12:24.311Z,3.47
2019-02-18T21:17:29.404Z,4.73
2019-02-18T21:22:34.088Z,8.53
2019-02-18T21:27:39.835Z,5.93
2019-02-18T21:32:44.889Z,6.30
2019-02-18T21:37:50.109Z,4.97
2019-02-18T21:42:55.848Z,3.60
2019-02-18T21:48:00.768Z,4.63
2019-02-18T21:53:08.947Z,3.83
2019-02-18T21:58:14.748Z,3.50
2019-02-18T22:03:19.622Z,3.43
2019-02-18T22:08:25.461Z,3.43
2019-02-18T22:13:30.166Z,2.80
2019-02-18T22:18:38.399Z,2.40
2019-02-18T22:23:43.091Z,2.57
2019-02-18T22:28:47.793Z,2.40
2019-02-18T22:33:54.423Z,2.03
2019-02-18T22:38:59.577Z,2.10
2019-02-18T22:44:07.487Z,1.87
2019-02-18T22:49:12.967Z,1.90
2019-02-18T22:54:17.890Z,1.80
2019-02-18T22:59:24.626Z,2.17
2019-02-18T23:04:29.418Z,1.60
2019-02-18T23:09:34.356Z,1.90
2019-02-18T23:14:39.152Z,1.60
2019-02-18T23:19:45.008Z,1.67
2019-02-18T23:24:51.360Z,1.40
2019-02-18T23:29:56.263Z,1.60
2019-02-18T23:35:03.933Z,1.80
2019-02-18T23:40:09.158Z,1.67
2019-02-18T23:45:14.036Z,1.70
2019-02-18T23:50:19.849Z,1.67
2019-02-18T23:55:24.524Z,1.60
